Time;durP1;ratioP1;P1;durP2;ratioP2;P2;SDS_P1;SDS_P2;PMS_P1;PMS_P2;Temp;Humidity;BMP_temperature;BMP_pressure;BME280_temperature;BME280_humidity;BME280_pressure;Samples;Min_cycle;Max_cycle;Signal;HPM_P1;HPM_P2
2021/07/15 00:03:47;;;;;;;;;;;16.20;99.90;;;15.20;79.90;95400.19;10351302;28;2646;-78
2021/07/15 00:09:09;;;;;;;;;;;16.20;99.90;;;15.23;80.14;95394.97;10328650;28;2245;-79
2021/07/15 00:14:12;;;;;;;;;;;16.20;99.90;;;15.37;79.39;95397.56;10334648;28;2690;-78
2021/07/15 00:19:18;;;;;;;;;;;16.20;99.90;;;15.44;78.78;95397.09;10329914;28;2716;-78
2021/07/15 00:24:20;;;;;;;;;;;16.30;99.90;;;15.52;78.87;95399.03;10321377;28;2577;-78
2021/07/15 00:29:23;;;;;;;;;;;16.40;99.90;;;15.49;78.78;95392.34;10327555;28;2388;-78
2021/07/15 00:34:26;;;;;;;;;;;16.50;99.90;;;15.46;79.01;95390.28;10336303;28;2396;-78
2021/07/15 00:39:28;;;;;;;;;;;16.40;99.90;;;15.59;78.44;95378.53;10344525;28;2295;-77
2021/07/15 00:44:31;;;;;;;;;;;16.50;99.90;;;15.58;78.77;95381.53;10331148;28;2399;-78
2021/07/15 00:49:34;;;;;;;;;;;16.50;99.90;;;15.57;78.99;95380.72;10343629;28;2374;-78
2021/07/15 00:54:36;;;;;;;;;;;16.50;99.90;;;15.55;78.08;95379.47;10331480;28;2281;-76
2021/07/15 00:59:39;;;;;;;;;;;16.50;99.90;;;15.48;79.15;95379.94;10324672;28;2351;-78
2021/07/15 01:04:42;;;;;;;;;;;16.50;99.90;;;15.51;78.89;95383.91;10323885;28;2531;-77
2021/07/15 01:09:44;;;;;;;;;;;16.50;99.90;;;15.48;79.53;95379.13;10330149;28;2668;-78
2021/07/15 01:14:47;;;;;;;;;;;16.40;99.90;;;15.54;81.26;95389.50;10333282;28;2568;-78
2021/07/15 01:19:50;;;;;;;;;;;16.50;99.90;;;15.36;83.43;95380.50;10333461;28;2509;-78
2021/07/15 01:24:52;;;;;;;;;;;16.40;99.90;;;15.37;84.21;95381.31;10353893;28;2515;-79
2021/07/15 01:29:55;;;;;;;;;;;16.40;99.90;;;15.09;86.92;95378.81;10342805;28;2526;-79
2021/07/15 01:34:58;;;;;;;;;;;16.30;99.90;;;15.13;86.94;95382.47;10327356;28;2497;-78
2021/07/15 01:40:00;;;;;;;;;;;16.20;99.90;;;14.96;90.68;95393.25;10353785;28;2588;-78
2021/07/15 01:45:03;;;;;;;;;;;16.10;99.90;;;14.80;92.10;95390.13;10337858;28;2589;-78
2021/07/15 01:50:06;;;;;;;;;;;16.00;99.90;;;14.58;94.57;95380.13;10338595;28;2679;-78
2021/07/15 01:55:08;;;;;;;;;;;15.80;99.90;;;14.55;95.38;95375.31;10344296;28;2695;-78
2021/07/15 02:00:11;;;;;;;;;;;15.70;99.90;;;14.56;95.42;95368.78;10331284;28;2811;-78
2021/07/15 02:05:14;;;;;;;;;;;15.60;99.90;;;14.52;95.62;95375.16;10327884;28;2927;-78
2021/07/15 02:10:17;;;;;;;;;;;15.60;99.90;;;14.52;95.50;95378.66;10329984;28;2898;-78
2021/07/15 02:15:19;;;;;;;;;;;15.60;99.90;;;14.53;95.27;95374.84;10330714;28;2917;-78
2021/07/15 02:20:22;;;;;;;;;;;15.60;99.90;;;14.58;95.50;95372.00;10331850;28;2540;-77
2021/07/15 02:25:25;;;;;;;;;;;15.60;99.90;;;14.64;94.60;95369.97;10338820;28;2537;-77
2021/07/15 02:30:28;;;;;;;;;;;15.60;99.90;;;14.59;93.71;95364.69;10343554;28;2312;-78
2021/07/15 02:35:30;;;;;;;;;;;15.60;99.90;;;14.55;93.34;95369.91;10342176;28;2461;-78
2021/07/15 02:40:33;;;;;;;;;;;15.60;99.90;;;14.55;93.71;95369.91;10326234;28;2549;-78
2021/07/15 02:45:36;;;;;;;;;;;15.60;99.90;;;14.36;93.82;95369.25;10332350;28;2505;-77
2021/07/15 02:50:38;;;;;;;;;;;15.50;99.90;;;14.35;93.45;95370.38;10326241;28;2682;-78
2021/07/15 02:55:41;;;;;;;;;;;15.40;99.90;;;14.26;93.45;95358.72;10338685;28;2490;-78
2021/07/15 03:00:44;;;;;;;;;;;15.40;99.90;;;14.21;95.36;95361.53;10338200;28;2624;-78
2021/07/15 03:05:47;;;;;;;;;;;15.30;99.90;;;14.11;94.87;95367.16;10348563;28;2663;-77
2021/07/15 03:10:49;;;;;;;;;;;15.20;99.90;;;14.05;94.54;95361.88;10344658;28;2481;-79
2021/07/15 03:15:52;;;;;;;;;;;15.20;99.90;;;14.04;94.90;95352.16;10349718;28;2532;-79
2021/07/15 03:20:55;;;;;;;;;;;15.10;99.90;;;14.25;93.83;95357.09;10332708;28;2634;-79
2021/07/15 03:25:58;;;;;;;;;;;15.10;99.90;;;14.29;94.08;95363.50;10341557;28;2548;-79
2021/07/15 03:31:00;;;;;;;;;;;15.20;99.90;;;14.37;93.42;95370.06;10344134;28;1895;-78
2021/07/15 03:36:03;;;;;;;;;;;15.30;99.90;;;14.57;91.64;95378.53;10335798;28;2497;-79
2021/07/15 03:41:05;;;;;;;;;;;15.30;99.90;;;14.48;91.17;95377.66;10343233;28;2675;-79
2021/07/15 03:46:08;;;;;;;;;;;15.40;99.90;;;14.49;90.92;95381.16;10334939;28;2133;-79
2021/07/15 03:51:11;;;;;;;;;;;15.40;99.90;;;14.35;90.86;95378.47;10323392;28;2583;-78
2021/07/15 03:56:14;;;;;;;;;;;15.40;99.90;;;14.44;91.31;95379.38;10331402;28;2441;-78
2021/07/15 04:01:17;;;;;;;;;;;15.40;99.90;;;14.52;90.26;95389.47;10329554;28;2254;-78
2021/07/15 04:06:20;;;;;;;;;;;15.50;99.90;;;14.63;89.77;95383.78;10316370;28;2556;-77
2021/07/15 04:11:24;;;;;;;;;;;15.50;99.90;;;14.82;89.39;95390.63;10332404;28;2205;-78
2021/07/15 04:16:47;;;;;;;;;;;15.70;99.90;;;15.01;88.29;95390.38;10323062;28;2469;-77
2021/07/15 04:22:09;;;;;;;;;;;15.80;99.90;;;15.12;87.37;95386.31;10323280;28;2508;-77
2021/07/15 04:27:12;;;;;;;;;;;15.90;99.90;;;15.48;85.48;95392.66;10326331;28;2442;-77
2021/07/15 04:32:15;;;;;;;;;;;16.10;99.90;;;15.80;84.12;95394.22;10330358;28;2461;-78
2021/07/15 04:37:18;;;;;;;;;;;16.50;99.90;;;15.87;82.29;95389.94;10331330;28;2505;-79
2021/07/15 04:42:20;;;;;;;;;;;16.60;99.90;;;15.82;81.84;95394.69;10353230;28;2504;-78
2021/07/15 04:47:24;;;;;;;;;;;16.70;99.90;;;15.93;80.02;95398.72;10339600;28;2233;-77
2021/07/15 04:52:27;;;;;;;;;;;16.80;99.90;;;15.92;78.35;95400.63;10331480;28;2480;-77
2021/07/15 04:57:30;;;;;;;;;;;16.80;99.90;;;16.03;77.64;95392.16;10322629;28;2450;-77
2021/07/15 05:02:33;;;;;;;;;;;16.80;99.90;;;16.35;76.37;95394.44;10331022;28;2474;-78
2021/07/15 05:07:36;;;;;;;;;;;17.00;99.90;;;16.66;75.56;95388.03;10338204;28;2683;-79
2021/07/15 05:12:38;;;;;;;;;;;17.30;99.90;;;16.82;72.17;95393.78;10329062;28;2675;-76
2021/07/15 05:17:41;;;;;;;;;;;17.50;99.90;;;16.84;72.03;95389.63;10326564;28;2516;-78
2021/07/15 05:22:44;;;;;;;;;;;17.60;99.90;;;17.06;71.13;95380.50;10323297;28;2450;-77
2021/07/15 05:27:47;;;;;;;;;;;17.70;99.90;;;16.93;72.37;95381.47;10335571;28;2465;-78
2021/07/15 05:32:50;;;;;;;;;;;17.80;99.90;;;16.78;73.37;95381.97;10333380;28;2504;-78
2021/07/15 05:37:52;;;;;;;;;;;17.80;99.90;;;16.53;74.79;95384.38;10333185;28;2328;-77
2021/07/15 05:42:55;;;;;;;;;;;17.60;99.90;;;16.50;75.18;95390.44;10324066;28;2280;-79
2021/07/15 05:47:58;;;;;;;;;;;17.50;99.90;;;16.28;77.30;95391.41;10324541;28;2317;-78
2021/07/15 05:53:00;;;;;;;;;;;17.30;99.90;;;16.26;77.52;95395.56;10323721;28;2670;-82
2021/07/15 05:58:03;;;;;;;;;;;17.20;99.90;;;16.27;76.66;95386.28;10338864;28;2297;-79
2021/07/15 06:03:09;;;;;;;;;;;17.20;99.90;;;16.56;75.33;95382.94;10356438;28;2205;-79
2021/07/15 06:08:12;;;;;;;;;;;17.30;99.90;;;16.89;73.92;95380.53;10342279;28;2320;-80
2021/07/15 06:13:15;;;;;;;;;;;17.50;99.90;;;17.41;71.74;95380.34;10332144;28;2350;-79
2021/07/15 06:18:18;;;;;;;;;;;18.00;99.90;;;18.07;70.79;95386.09;10342358;28;2273;-80
2021/07/15 06:23:20;;;;;;;;;;;18.50;99.90;;;18.77;65.74;95381.72;10341778;28;2834;-80
2021/07/15 06:28:23;;;;;;;;;;;19.10;99.90;;;18.67;66.90;95389.50;10343277;28;2412;-78
2021/07/15 06:33:26;;;;;;;;;;;19.40;99.90;;;19.39;63.88;95375.25;10356533;28;2159;-79
2021/07/15 06:38:28;;;;;;;;;;;19.80;99.90;;;19.74;62.11;95376.78;10355669;28;2375;-80
2021/07/15 06:43:31;;;;;;;;;;;20.20;99.90;;;19.53;63.05;95374.94;10354983;28;2321;-78
2021/07/15 06:48:34;;;;;;;;;;;20.20;99.90;;;20.09;61.49;95358.78;10353943;28;2256;-79
2021/07/15 06:53:38;;;;;;;;;;;20.40;99.90;;;21.30;57.38;95355.91;10352493;28;2348;-78
2021/07/15 06:58:40;;;;;;;;;;;21.30;99.90;;;22.27;54.36;95346.13;10356423;28;2254;-81
2021/07/15 07:03:43;;;;;;;;;;;22.20;99.90;;;21.44;56.52;95361.75;10367939;28;1696;-80
2021/07/15 07:08:46;;;;;;;;;;;22.40;99.90;;;21.03;57.98;95357.53;10362636;28;2304;-79
2021/07/15 07:13:49;;;;;;;;;;;22.10;99.90;;;21.04;58.90;95349.00;10364515;28;2147;-80
2021/07/15 07:18:52;;;;;;;;;;;21.90;99.90;;;21.20;57.02;95351.75;10354197;28;2625;-80
2021/07/15 07:24:02;;;;;;;;;;;22.00;99.90;;;21.04;57.71;95367.31;10352079;28;2290;-80
2021/07/15 07:29:05;;;;;;;;;;;21.90;99.90;;;20.90;57.15;95365.00;10355042;28;2376;-81
2021/07/15 07:34:07;;;;;;;;;;;21.80;99.90;;;21.03;55.84;95363.81;10352629;28;2609;-79
2021/07/15 07:39:10;;;;;;;;;;;21.80;99.90;;;21.27;55.66;95368.34;10326525;28;2394;-80
2021/07/15 07:44:13;;;;;;;;;;;21.90;99.90;;;21.12;56.45;95362.84;10332685;28;2171;-81
2021/07/15 07:49:16;;;;;;;;;;;21.90;99.90;;;20.45;63.86;95360.66;10320283;28;2317;-82
2021/07/15 07:54:18;;;;;;;;;;;21.70;99.90;;;20.36;65.75;95367.34;10332208;28;2423;-80
2021/07/15 07:59:21;;;;;;;;;;;21.40;99.90;;;20.93;62.62;95368.97;10321719;28;2429;-81
2021/07/15 08:04:24;;;;;;;;;;;21.50;99.90;;;21.04;63.78;95370.84;10334505;28;2708;-79
2021/07/15 08:09:28;;;;;;;;;;;21.80;99.90;;;21.37;60.26;95366.25;10333521;28;2364;-80
2021/07/15 08:14:31;;;;;;;;;;;21.90;99.90;;;21.27;57.52;95378.47;10345561;28;2284;-80
2021/07/15 08:19:34;;;;;;;;;;;22.00;99.90;;;21.55;58.51;95379.22;10359750;28;2309;-79
2021/07/15 08:24:36;;;;;;;;;;;22.10;99.90;;;21.42;59.57;95387.84;10341357;28;2473;-79
2021/07/15 08:29:39;;;;;;;;;;;22.20;99.90;;;21.42;61.56;95385.91;10343861;28;2289;-79
2021/07/15 08:34:42;;;;;;;;;;;22.10;99.90;;;20.85;66.14;95399.97;10333902;28;2351;-81
2021/07/15 08:39:45;;;;;;;;;;;21.90;99.90;;;20.31;72.87;95406.63;10338807;28;2439;-79
2021/07/15 08:44:48;;;;;;;;;;;21.60;99.90;;;19.98;71.48;95409.50;10344274;28;2645;-79
2021/07/15 08:49:50;;;;;;;;;;;21.20;99.90;;;19.41;75.70;95419.34;10349687;28;2360;-79
2021/07/15 08:54:59;;;;;;;;;;;20.70;99.90;;;18.78;79.26;95423.34;10368031;28;2719;-79
2021/07/15 09:00:04;;;;;;;;;;;20.20;99.90;;;18.64;78.23;95427.13;10352595;28;2289;-79
2021/07/15 09:05:07;;;;;;;;;;;19.80;99.90;;;18.59;80.96;95434.69;10352929;28;2361;-79
2021/07/15 09:10:10;;;;;;;;;;;19.70;99.90;;;18.08;83.75;95436.66;10341275;28;2468;-80
2021/07/15 09:15:14;;;;;;;;;;;19.30;99.90;;;17.96;81.65;95439.28;10341464;28;2246;-82
2021/07/15 09:20:16;;;;;;;;;;;19.10;99.90;;;17.86;85.98;95440.44;10340453;28;2783;-79
2021/07/15 09:25:19;;;;;;;;;;;19.00;99.90;;;17.66;85.13;95446.59;10344213;28;2304;-81
2021/07/15 09:30:22;;;;;;;;;;;18.70;99.90;;;17.46;86.66;95448.91;10360351;28;2363;-82
2021/07/15 09:35:28;;;;;;;;;;;18.50;99.90;;;17.37;85.02;95442.72;10360416;28;2371;-81
2021/07/15 09:40:31;;;;;;;;;;;18.30;99.90;;;17.31;86.53;95448.63;10359524;28;2407;-82
2021/07/15 09:45:34;;;;;;;;;;;18.10;99.90;;;17.60;86.25;95456.84;10364211;28;2382;-82
2021/07/15 09:50:36;;;;;;;;;;;18.30;99.90;;;17.89;83.91;95461.56;10375678;28;2276;-81
2021/07/15 09:55:39;;;;;;;;;;;18.50;99.90;;;18.33;79.03;95448.50;10363206;28;2286;-80
2021/07/15 10:00:42;;;;;;;;;;;18.80;99.90;;;18.65;76.30;95455.16;10350639;28;2549;-80
2021/07/15 10:05:45;;;;;;;;;;;19.10;99.90;;;18.69;74.87;95453.34;10330092;28;2327;-80
2021/07/15 10:10:47;;;;;;;;;;;19.40;99.90;;;18.49;76.19;95462.31;10331034;28;2310;-81
2021/07/15 10:15:52;;;;;;;;;;;19.40;99.90;;;18.23;74.72;95448.88;10332505;28;2324;-80
2021/07/15 10:20:55;;;;;;;;;;;19.40;99.90;;;18.79;70.62;95452.16;10338452;28;2266;-81
2021/07/15 10:25:58;;;;;;;;;;;19.40;99.90;;;19.39;69.14;95457.03;10331239;28;2377;-82
2021/07/15 10:31:01;;;;;;;;;;;19.80;99.90;;;20.37;64.88;95459.84;10323051;28;2391;-80
2021/07/15 10:36:03;;;;;;;;;;;20.40;99.90;;;20.98;62.66;95454.22;10319776;28;2491;-81
2021/07/15 10:41:06;;;;;;;;;;;21.20;99.90;;;21.21;58.60;95445.47;10320520;28;2418;-81
2021/07/15 10:46:09;;;;;;;;;;;21.70;99.90;;;21.53;58.48;95435.41;10320941;28;2702;-80
2021/07/15 10:51:11;;;;;;;;;;;22.00;99.90;;;21.58;56.58;95430.47;10332913;28;2744;-80
2021/07/15 10:56:14;;;;;;;;;;;22.20;99.90;;;21.42;57.71;95437.06;10342575;28;2399;-80
2021/07/15 11:01:19;;;;;;;;;;;22.10;99.90;;;20.89;57.11;95442.66;10348902;28;2348;-78
2021/07/15 11:06:22;;;;;;;;;;;22.00;99.90;;;20.39;59.29;95435.72;10328680;28;2372;-81
2021/07/15 11:11:24;;;;;;;;;;;21.60;99.90;;;20.85;61.03;95444.47;10326818;28;2367;-81
2021/07/15 11:16:37;;;;;;;;;;;21.50;99.90;;;20.94;62.54;95447.88;10337598;28;2354;-81
2021/07/15 11:21:40;;;;;;;;;;;21.80;99.90;;;20.85;60.07;95449.16;10336500;28;2380;-82
2021/07/15 11:26:44;;;;;;;;;;;21.80;99.90;;;20.40;59.54;95447.41;10350188;28;2237;-82
2021/07/15 11:31:48;;;;;;;;;;;21.60;99.90;;;19.94;61.71;95449.50;10345090;28;2401;-78
2021/07/15 11:36:50;;;;;;;;;;;21.20;99.90;;;19.72;62.18;95453.47;10357326;28;2197;-81
2021/07/15 11:41:54;;;;;;;;;;;20.90;99.90;;;19.56;66.51;95455.25;10354641;28;2305;-82
2021/07/15 11:46:56;;;;;;;;;;;20.60;99.90;;;19.23;69.69;95458.81;10356413;28;2400;-83
2021/07/15 11:52:00;;;;;;;;;;;20.40;99.90;;;19.29;66.14;95457.47;10352137;28;2708;-82
2021/07/15 11:57:03;;;;;;;;;;;20.20;99.90;;;19.43;63.50;95463.41;10357946;28;2673;-81
2021/07/15 12:02:06;;;;;;;;;;;20.30;99.90;;;19.71;61.64;95455.41;10376453;28;2304;-81
2021/07/15 12:07:08;;;;;;;;;;;20.50;99.90;;;19.90;60.97;95460.28;10361049;28;2242;-81
2021/07/15 12:12:11;;;;;;;;;;;20.60;99.90;;;19.89;61.23;95457.91;10363900;28;2244;-81
2021/07/15 12:17:14;;;;;;;;;;;20.70;99.90;;;20.10;61.37;95455.06;10364856;28;2333;-78
2021/07/15 12:22:17;;;;;;;;;;;20.80;99.90;;;20.23;60.07;95454.75;10359658;28;2561;-80
2021/07/15 12:27:19;;;;;;;;;;;20.90;99.90;;;20.39;59.56;95448.56;10367251;28;2265;-80
2021/07/15 12:32:22;;;;;;;;;;;21.10;99.90;;;20.03;62.94;95455.63;10373765;28;1885;-79
2021/07/15 12:37:25;;;;;;;;;;;21.00;99.90;;;19.51;66.73;95463.63;10366959;28;2240;-79
2021/07/15 12:42:27;;;;;;;;;;;20.80;99.90;;;19.40;65.62;95461.34;10344602;28;2105;-79
2021/07/15 12:47:30;;;;;;;;;;;20.50;99.90;;;19.53;65.34;95461.34;10362845;28;1695;-81
2021/07/15 12:52:33;;;;;;;;;;;20.40;99.90;;;20.18;63.41;95462.34;10367985;28;1588;-80
2021/07/15 12:57:35;;;;;;;;;;;20.70;99.90;;;21.24;58.95;95452.97;10355788;28;1947;-81
2021/07/15 13:02:39;;;;;;;;;;;21.30;99.90;;;21.86;56.56;95454.22;10326300;28;2425;-79
2021/07/15 13:07:43;;;;;;;;;;;22.10;99.90;;;22.20;55.74;95451.91;10332780;28;2359;-79
2021/07/15 13:18:06;;;;;;;;;;;23.10;99.90;;;22.61;55.13;95440.34;10335889;28;2327;-82
2021/07/15 13:23:08;;;;;;;;;;;23.30;99.90;;;22.98;53.08;95442.72;10340765;28;2310;-79
2021/07/15 13:28:11;;;;;;;;;;;23.50;99.90;;;22.89;53.33;95444.84;10337889;28;2394;-78
2021/07/15 13:33:14;;;;;;;;;;;23.60;99.90;;;23.26;53.04;95438.94;10336211;28;2301;-79
2021/07/15 13:38:17;;;;;;;;;;;23.80;99.90;;;23.14;52.69;95426.94;10334750;28;2340;-79
2021/07/15 13:43:20;;;;;;;;;;;24.00;99.90;;;22.99;52.27;95425.09;10332290;28;2280;-78
2021/07/15 13:48:23;;;;;;;;;;;24.00;99.90;;;23.29;52.78;95425.28;10336430;28;2248;-80
2021/07/15 13:53:26;;;;;;;;;;;23.90;99.90;;;23.36;51.33;95421.88;10330503;28;2363;-80
2021/07/15 13:58:29;;;;;;;;;;;24.20;99.90;;;23.34;52.02;95422.22;10338237;28;2360;-79
2021/07/15 14:03:31;;;;;;;;;;;24.20;99.90;;;23.54;51.24;95424.94;10329758;28;2306;-78
2021/07/15 14:08:34;;;;;;;;;;;24.30;99.90;;;23.49;50.73;95426.03;10348891;28;2285;-79
2021/07/15 14:13:37;;;;;;;;;;;24.30;99.90;;;23.05;52.79;95431.88;10342559;28;1938;-79
2021/07/15 14:18:40;;;;;;;;;;;24.10;99.90;;;22.37;56.01;95429.63;10346380;28;2280;-79
2021/07/15 14:23:45;;;;;;;;;;;23.60;99.90;;;22.02;56.66;95446.81;10353013;28;2296;-80
2021/07/15 14:28:48;;;;;;;;;;;23.20;99.90;;;21.34;58.94;95449.75;10371042;28;2392;-79
2021/07/15 14:33:51;;;;;;;;;;;22.80;99.90;;;21.01;60.46;95456.28;10343269;28;2308;-78
2021/07/15 14:38:54;;;;;;;;;;;22.30;99.90;;;20.60;63.76;95448.44;10333989;28;2308;-79
2021/07/15 14:43:57;;;;;;;;;;;21.90;99.90;;;19.82;73.75;95461.22;10339902;28;2336;-79
2021/07/15 14:48:59;;;;;;;;;;;21.30;99.90;;;19.41;77.30;95471.13;10332239;28;2307;-77
2021/07/15 14:54:02;;;;;;;;;;;20.80;99.90;;;19.67;73.80;95457.22;10326534;28;2364;-80
2021/07/15 14:59:05;;;;;;;;;;;20.60;99.90;;;20.10;69.53;95453.13;10334358;28;2332;-79
2021/07/15 15:04:08;;;;;;;;;;;20.70;99.90;;;20.49;67.17;95446.19;10327244;28;2329;-81
2021/07/15 15:09:10;;;;;;;;;;;21.10;99.90;;;20.36;66.69;95455.53;10334662;28;2328;-81
2021/07/15 15:14:14;;;;;;;;;;;21.20;99.90;;;20.15;66.70;95446.66;10333843;28;2047;-80
2021/07/15 15:19:17;;;;;;;;;;;21.10;99.90;;;19.89;68.58;95453.25;10357880;28;2292;-78
2021/07/15 15:24:20;;;;;;;;;;;21.00;99.90;;;19.70;68.75;95450.28;10349356;28;2345;-79
2021/07/15 15:29:23;;;;;;;;;;;20.80;99.90;;;19.71;68.26;95447.22;10338635;28;2350;-79
2021/07/15 15:34:25;;;;;;;;;;;20.70;99.90;;;19.54;69.49;95452.06;10330978;28;2389;-79
2021/07/15 15:39:28;;;;;;;;;;;20.50;99.90;;;19.53;69.74;95450.44;10332507;28;2288;-80
2021/07/15 15:44:31;;;;;;;;;;;20.50;99.90;;;19.65;69.09;95436.88;10326554;28;2306;-81
2021/07/15 15:49:34;;;;;;;;;;;20.50;99.90;;;19.58;69.23;95442.09;10329382;28;2557;-80
2021/07/15 15:54:37;;;;;;;;;;;20.50;99.90;;;19.28;75.11;95449.63;10324107;28;2504;-81
2021/07/15 15:59:40;;;;;;;;;;;20.40;99.90;;;18.92;79.14;95453.81;10332740;28;2264;-81
2021/07/15 16:04:43;;;;;;;;;;;20.20;99.90;;;18.34;86.42;95442.72;10329331;28;2312;-83
2021/07/15 16:09:46;;;;;;;;;;;19.80;99.90;;;18.05;86.26;95442.72;10324364;28;2329;-81
2021/07/15 16:14:50;;;;;;;;;;;19.40;99.90;;;17.87;89.89;95435.78;10343994;28;1887;-79
2021/07/15 16:19:53;;;;;;;;;;;19.10;99.90;;;17.73;92.42;95439.53;10327301;28;2451;-81
2021/07/15 16:24:56;;;;;;;;;;;18.90;99.90;;;17.60;94.58;95440.53;10323431;28;2406;-79
2021/07/15 16:29:59;;;;;;;;;;;18.80;99.90;;;17.66;94.10;95436.50;10322368;28;2321;-79
2021/07/15 16:35:02;;;;;;;;;;;18.70;99.90;;;17.77;94.22;95445.94;10332266;28;2324;-82
2021/07/15 16:40:05;;;;;;;;;;;18.70;99.90;;;17.87;93.35;95452.91;10331829;28;2324;-82
2021/07/15 16:45:08;;;;;;;;;;;18.80;99.90;;;18.10;92.21;95456.16;10346592;28;2414;-82
2021/07/15 16:50:10;;;;;;;;;;;18.90;99.90;;;18.16;92.69;95456.75;10337580;28;2301;-82
2021/07/15 16:55:13;;;;;;;;;;;19.00;99.90;;;18.68;85.75;95457.22;10324578;28;2333;-81
2021/07/15 17:00:16;;;;;;;;;;;19.30;99.90;;;18.94;87.72;95467.88;10339316;28;2327;-80
2021/07/15 17:05:38;;;;;;;;;;;19.60;99.90;;;18.98;87.53;95463.38;10334325;28;2332;-80
2021/07/15 17:10:41;;;;;;;;;;;19.80;99.90;;;19.18;84.42;95472.63;10330255;28;2312;-84
2021/07/15 17:15:44;;;;;;;;;;;19.90;99.90;;;19.32;82.37;95486.75;10330660;28;2246;-83
2021/07/15 17:20:51;;;;;;;;;;;20.00;99.90;;;19.28;84.15;95494.03;10328153;28;2333;-82
2021/07/15 17:25:54;;;;;;;;;;;20.20;99.90;;;19.29;82.09;95484.72;10324531;28;2253;-82
2021/07/15 17:30:57;;;;;;;;;;;20.10;99.90;;;19.52;80.00;95470.69;10333227;28;2295;-80
2021/07/15 17:36:00;;;;;;;;;;;20.10;99.90;;;19.67;78.16;95483.69;10355444;28;2234;-81
2021/07/15 17:41:02;;;;;;;;;;;20.30;99.90;;;19.52;80.17;95487.03;10355506;28;2439;-83
2021/07/15 17:46:05;;;;;;;;;;;20.40;99.90;;;19.50;79.16;95489.31;10346238;28;2333;-82
2021/07/15 17:51:08;;;;;;;;;;;20.30;99.90;;;19.16;80.36;95494.78;10335682;28;2234;-82
2021/07/15 17:56:11;;;;;;;;;;;20.20;99.90;;;18.85;82.58;95492.47;10359493;28;2257;-83
2021/07/15 18:01:14;;;;;;;;;;;19.90;99.90;;;18.34;87.70;95505.31;10345567;28;2286;-80
2021/07/15 18:06:17;;;;;;;;;;;19.60;99.90;;;18.16;87.50;95508.44;10352965;28;2252;-80
2021/07/15 18:11:20;;;;;;;;;;;19.30;99.90;;;17.67;93.18;95519.63;10352378;28;2353;-79
2021/07/15 18:16:22;;;;;;;;;;;19.00;99.90;;;17.37;96.20;95520.66;10341170;28;2300;-80
2021/07/15 18:21:25;;;;;;;;;;;18.60;99.90;;;17.15;96.60;95527.09;10340779;28;2325;-81
2021/07/15 18:26:28;;;;;;;;;;;18.40;99.90;;;16.95;97.64;95525.84;10352534;28;2339;-79
2021/07/15 18:31:31;;;;;;;;;;;18.20;99.90;;;16.86;97.95;95533.16;10357182;28;2331;-80
2021/07/15 18:36:38;;;;;;;;;;;17.90;99.90;;;16.78;97.53;95536.69;10348055;28;2257;-80
2021/07/15 18:41:43;;;;;;;;;;;17.80;99.90;;;16.63;96.89;95536.00;10339554;28;2343;-80
2021/07/15 18:46:47;;;;;;;;;;;17.70;99.90;;;16.52;98.14;95539.34;10328735;28;2296;-80
2021/07/15 18:51:54;;;;;;;;;;;17.60;99.90;;;16.40;98.13;95535.34;10324268;28;2222;-82
2021/07/15 18:56:57;;;;;;;;;;;17.50;99.90;;;16.32;98.14;95546.16;10337802;28;2443;-79
2021/07/15 19:02:00;;;;;;;;;;;17.40;99.90;;;16.15;98.90;95542.28;10337320;28;2246;-80
2021/07/15 19:07:04;;;;;;;;;;;17.30;99.90;;;16.22;97.85;95541.81;10338185;28;2448;-80
2021/07/15 19:12:07;;;;;;;;;;;17.20;99.90;;;16.05;99.06;95560.75;10339113;28;2229;-80
2021/07/15 19:17:10;;;;;;;;;;;17.10;99.90;;;15.88;98.92;95565.00;10333035;28;2294;-80
2021/07/15 19:22:13;;;;;;;;;;;17.00;99.90;;;15.95;98.70;95568.03;10337467;28;2371;-80
2021/07/15 19:27:15;;;;;;;;;;;17.00;99.90;;;15.85;98.41;95575.69;10338881;28;2411;-82
2021/07/15 19:32:18;;;;;;;;;;;16.90;99.90;;;15.75;98.97;95578.63;10326837;28;2510;-80
2021/07/15 19:37:21;;;;;;;;;;;16.80;99.90;;;15.58;97.56;95582.81;10329870;28;2395;-81
2021/07/15 19:42:24;;;;;;;;;;;16.70;99.90;;;15.51;98.40;95595.19;10326214;28;2621;-79
2021/07/15 19:47:26;;;;;;;;;;;16.60;99.90;;;15.34;97.88;95598.59;10355164;28;2373;-80
2021/07/15 19:52:29;;;;;;;;;;;16.50;99.90;;;15.31;97.11;95596.50;10341634;28;2471;-82
2021/07/15 19:57:32;;;;;;;;;;;16.40;99.90;;;15.16;97.47;95599.56;10351144;28;2407;-81
2021/07/15 20:02:35;;;;;;;;;;;16.30;99.90;;;15.07;98.13;95605.69;10348587;28;2685;-83
2021/07/15 20:07:38;;;;;;;;;;;16.20;99.90;;;15.01;96.92;95617.75;10356631;28;2384;-81
2021/07/15 20:12:40;;;;;;;;;;;16.10;99.90;;;14.94;97.99;95622.78;10348963;28;2331;-79
2021/07/15 20:17:43;;;;;;;;;;;16.00;99.90;;;14.86;97.32;95628.94;10332911;28;2430;-81
2021/07/15 20:22:46;;;;;;;;;;;16.00;99.90;;;14.74;96.57;95640.25;10340162;28;2308;-79
2021/07/15 20:27:50;;;;;;;;;;;15.90;99.90;;;14.73;96.00;95637.88;10352534;28;2747;-80
2021/07/15 20:32:53;;;;;;;;;;;15.90;99.90;;;14.72;95.40;95636.28;10336936;28;2300;-80
2021/07/15 20:37:56;;;;;;;;;;;15.80;99.90;;;14.83;94.96;95653.91;10337042;28;2382;-83
2021/07/15 20:42:59;;;;;;;;;;;15.80;99.90;;;14.81;95.24;95651.47;10327231;28;2499;-81
2021/07/15 20:48:01;;;;;;;;;;;15.80;99.90;;;14.84;93.52;95655.50;10351359;28;2237;-81
2021/07/15 20:53:04;;;;;;;;;;;15.80;99.90;;;14.82;93.88;95663.09;10346494;28;2352;-79
2021/07/15 20:58:08;;;;;;;;;;;15.80;99.90;;;14.72;94.46;95657.91;10342281;28;2377;-80
2021/07/15 21:03:10;;;;;;;;;;;15.80;99.90;;;14.70;94.92;95660.13;10337728;28;2367;-81
2021/07/15 21:08:14;;;;;;;;;;;15.70;99.90;;;14.65;95.41;95669.16;10352560;28;2507;-79
2021/07/15 21:13:17;;;;;;;;;;;15.70;99.90;;;14.60;95.43;95672.75;10360596;28;2502;-81
2021/07/15 21:18:20;;;;;;;;;;;15.60;99.90;;;14.68;95.89;95673.94;10339997;28;2358;-79
2021/07/15 21:23:22;;;;;;;;;;;15.60;99.90;;;14.61;95.22;95673.53;10327927;28;2764;-81
2021/07/15 21:28:25;;;;;;;;;;;15.70;99.90;;;14.51;95.84;95669.16;10349521;28;2358;-81
2021/07/15 21:33:29;;;;;;;;;;;15.60;99.90;;;14.57;96.02;95676.06;10336927;28;2349;-80
2021/07/15 21:38:31;;;;;;;;;;;15.50;99.90;;;14.60;95.79;95683.56;10351576;28;2451;-81
2021/07/15 21:43:34;;;;;;;;;;;15.50;99.90;;;14.70;95.27;95685.28;10343638;28;2399;-82
2021/07/15 21:48:37;;;;;;;;;;;15.60;99.90;;;14.78;94.79;95683.78;10333670;28;2580;-79
2021/07/15 21:53:40;;;;;;;;;;;15.70;99.90;;;14.92;93.31;95692.66;10340238;28;2374;-79
2021/07/15 21:58:42;;;;;;;;;;;15.80;99.90;;;15.02;93.60;95697.88;10334116;28;2360;-80
2021/07/15 22:03:45;;;;;;;;;;;15.90;99.90;;;15.05;94.04;95704.56;10350264;28;2432;-82
2021/07/15 22:08:51;;;;;;;;;;;15.90;99.90;;;15.03;94.31;95704.88;10337910;28;2218;-79
2021/07/15 22:14:13;;;;;;;;;;;16.00;99.90;;;15.27;92.06;95695.69;10339303;28;2446;-80
2021/07/15 22:19:36;;;;;;;;;;;16.00;99.90;;;15.27;92.58;95693.81;10349731;28;2241;-81
2021/07/15 22:24:59;;;;;;;;;;;16.10;99.90;;;15.20;92.35;95685.28;10347743;28;2343;-80
2021/07/15 22:30:21;;;;;;;;;;;16.20;99.90;;;15.24;92.05;95678.16;10347605;28;1411;-81
2021/07/15 22:35:44;;;;;;;;;;;16.20;99.90;;;15.27;91.61;95691.09;10348663;28;2238;-80
2021/07/15 22:41:08;;;;;;;;;;;16.20;99.90;;;15.21;91.10;95695.03;10345369;28;2315;-81
2021/07/15 22:46:30;;;;;;;;;;;16.20;99.90;;;15.33;91.46;95697.19;10344437;28;2239;-80
2021/07/15 22:51:33;;;;;;;;;;;16.20;99.90;;;15.36;91.13;95691.16;10354339;28;2365;-80
2021/07/15 22:56:56;;;;;;;;;;;16.20;99.90;;;15.42;90.55;95698.06;10365898;28;2411;-79
2021/07/15 23:01:59;;;;;;;;;;;16.30;99.90;;;15.44;89.62;95695.84;10366467;28;2162;-81
2021/07/15 23:07:03;;;;;;;;;;;16.30;99.90;;;15.48;89.58;95688.72;10370601;28;2288;-80
2021/07/15 23:12:05;;;;;;;;;;;16.40;99.90;;;15.55;89.08;95691.81;10353630;28;2312;-80
2021/07/15 23:17:08;;;;;;;;;;;16.40;99.90;;;15.53;89.62;95699.44;10344640;28;2293;-79
2021/07/15 23:22:11;;;;;;;;;;;16.40;99.90;;;15.45;89.00;95692.03;10336876;28;2498;-80